Time;durP1;ratioP1;P1;durP2;ratioP2;P2;SDS_P1;SDS_P2;PMS_P1;PMS_P2;Temp;Humidity;BMP_temperature;BMP_pressure;BME280_temperature;BME280_humidity;BME280_pressure;Samples;Min_cycle;Max_cycle;Signal;HPM_P1;HPM_P2
2022/10/14 00:00:18;;;;;;;24.85;15.90;;;24.20;46.50;;;;;;7676616;22;83436;-50
2022/10/14 00:03:19;;;;;;;24.65;16.60;;;24.20;46.50;;;;;;7674339;22;82944;-49
2022/10/14 00:06:19;;;;;;;23.00;15.80;;;24.20;46.50;;;;;;7674128;22;84678;-57
2022/10/14 00:09:19;;;;;;;24.92;16.00;;;24.20;46.40;;;;;;7674171;22;83507;-56
2022/10/14 00:12:20;;;;;;;23.55;16.48;;;24.20;46.50;;;;;;7676085;22;84020;-58
2022/10/14 00:15:20;;;;;;;24.30;16.38;;;24.20;46.50;;;;;;7675580;22;83084;-56
2022/10/14 00:18:21;;;;;;;28.27;15.90;;;24.10;46.40;;;;;;7674986;22;82881;-57
2022/10/14 00:21:23;;;;;;;25.33;17.67;;;24.20;46.50;;;;;;7677138;22;82856;-58
2022/10/14 00:24:24;;;;;;;21.80;14.88;;;24.20;46.50;;;;;;7671328;22;83004;-57
2022/10/14 00:27:24;;;;;;;22.58;15.70;;;24.10;46.40;;;;;;7676046;22;83003;-59
2022/10/14 00:30:25;;;;;;;26.88;17.02;;;24.10;46.40;;;;;;7647269;22;84180;-57
2022/10/14 00:33:26;;;;;;;24.10;16.35;;;24.10;46.50;;;;;;7676540;22;82958;-55
2022/10/14 00:36:28;;;;;;;23.60;16.38;;;24.10;46.40;;;;;;7650643;22;86012;-54
2022/10/14 00:39:28;;;;;;;24.98;16.60;;;24.10;46.60;;;;;;7645845;22;83036;-56
2022/10/14 00:42:30;;;;;;;24.13;16.08;;;24.10;46.60;;;;;;7646597;22;84293;-55
2022/10/14 00:45:31;;;;;;;26.52;15.18;;;24.10;46.50;;;;;;7674374;22;84199;-58
2022/10/14 00:48:32;;;;;;;25.27;16.48;;;24.10;46.60;;;;;;7676512;22;82911;-57
2022/10/14 00:51:34;;;;;;;22.77;15.73;;;24.10;46.60;;;;;;7672125;22;83165;-58
2022/10/14 00:54:34;;;;;;;23.20;15.93;;;24.10;46.70;;;;;;7672937;22;82994;-58
2022/10/14 00:57:35;;;;;;;24.73;15.80;;;24.10;46.60;;;;;;7676150;22;82958;-57
2022/10/14 01:00:35;;;;;;;21.40;14.30;;;24.10;46.70;;;;;;7674837;22;83228;-57
2022/10/14 01:03:36;;;;;;;22.67;15.40;;;24.10;46.90;;;;;;7675875;22;83023;-56
2022/10/14 01:06:37;;;;;;;23.77;15.60;;;24.10;46.90;;;;;;7646222;22;84052;-56
2022/10/14 01:09:37;;;;;;;25.33;15.45;;;24.10;46.70;;;;;;7675276;22;89799;-56
2022/10/14 01:12:38;;;;;;;25.33;15.43;;;24.10;46.50;;;;;;7673806;22;83917;-56
2022/10/14 01:15:38;;;;;;;22.88;15.43;;;24.10;46.60;;;;;;7674280;22;82864;-54
2022/10/14 01:18:39;;;;;;;26.05;15.90;;;24.10;46.70;;;;;;7647541;22;85888;-56
2022/10/14 01:21:39;;;;;;;25.15;15.52;;;24.10;46.60;;;;;;7674409;22;83535;-56
2022/10/14 01:24:43;;;;;;;22.08;15.45;;;24.10;46.70;;;;;;7646051;22;84166;-55
2022/10/14 01:27:44;;;;;;;22.83;14.85;;;24.10;46.70;;;;;;7674075;22;84656;-54
2022/10/14 01:30:44;;;;;;;25.30;15.88;;;24.10;46.70;;;;;;7672430;22;83330;-54
2022/10/14 01:33:45;;;;;;;24.60;15.13;;;24.10;46.60;;;;;;7670955;22;82704;-54
2022/10/14 01:36:45;;;;;;;23.08;14.77;;;24.10;46.60;;;;;;7676330;22;84460;-56
2022/10/14 01:39:46;;;;;;;21.85;14.27;;;24.10;46.60;;;;;;7645937;22;84078;-56
2022/10/14 01:42:46;;;;;;;25.10;15.07;;;24.10;46.60;;;;;;7673785;22;83128;-57
2022/10/14 01:45:47;;;;;;;19.45;14.70;;;24.10;46.60;;;;;;7673697;22;84587;-57
2022/10/14 01:48:47;;;;;;;22.30;14.85;;;24.10;46.60;;;;;;7672753;22;82940;-58
2022/10/14 01:51:49;;;;;;;21.88;14.65;;;24.10;46.50;;;;;;7649242;22;85644;-56
2022/10/14 01:54:49;;;;;;;22.55;14.20;;;24.10;46.50;;;;;;7674420;22;82795;-62
2022/10/14 01:57:50;;;;;;;21.65;14.27;;;24.10;46.60;;;;;;7647207;22;84378;-61
2022/10/14 02:00:51;;;;;;;22.15;13.95;;;24.10;46.50;;;;;;7646510;22;86157;-62
2022/10/14 02:03:51;;;;;;;25.05;14.15;;;24.10;46.70;;;;;;7674172;22;82953;-63
2022/10/14 02:06:52;;;;;;;21.48;14.05;;;24.10;46.50;;;;;;7647166;22;85847;-63
2022/10/14 02:09:53;;;;;;;22.27;14.93;;;24.10;46.60;;;;;;7646899;22;86463;-63
2022/10/14 02:12:53;;;;;;;19.90;14.05;;;24.10;46.60;;;;;;7672578;22;83381;-63
2022/10/14 02:15:54;;;;;;;21.17;14.10;;;24.00;46.40;;;;;;7674445;22;85010;-63
2022/10/14 02:18:55;;;;;;;19.63;13.30;;;24.10;46.50;;;;;;7646847;22;84937;-64
2022/10/14 02:21:55;;;;;;;21.38;14.38;;;24.10;46.50;;;;;;7644901;22;83969;-63
2022/10/14 02:24:57;;;;;;;20.30;14.32;;;24.10;46.40;;;;;;7649376;22;85477;-63
2022/10/14 02:27:57;;;;;;;18.77;12.80;;;24.10;46.40;;;;;;7673859;22;83433;-64
2022/10/14 02:30:58;;;;;;;19.95;14.48;;;24.00;46.50;;;;;;7678579;22;83257;-63
2022/10/14 02:33:58;;;;;;;21.63;13.55;;;24.00;46.50;;;;;;7647461;22;85804;-65
2022/10/14 02:36:59;;;;;;;22.88;14.65;;;24.00;46.40;;;;;;7649870;22;84031;-65
2022/10/14 02:39:59;;;;;;;17.80;13.35;;;24.00;46.50;;;;;;7648779;22;84025;-63
2022/10/14 02:43:00;;;;;;;20.33;13.57;;;24.00;46.60;;;;;;7676179;22;83514;-64
2022/10/14 02:46:01;;;;;;;21.70;13.95;;;24.10;46.50;;;;;;7646790;22;84542;-64
2022/10/14 02:49:01;;;;;;;18.85;12.95;;;24.10;46.60;;;;;;7648606;22;85129;-65
2022/10/14 02:52:02;;;;;;;18.42;12.40;;;24.00;46.70;;;;;;7673966;22;83127;-64
2022/10/14 02:55:02;;;;;;;18.27;12.52;;;24.00;46.70;;;;;;7650858;22;85669;-62
2022/10/14 02:58:03;;;;;;;18.60;12.45;;;24.10;46.70;;;;;;7648221;22;85873;-61
2022/10/14 03:01:03;;;;;;;21.30;13.73;;;24.10;46.80;;;;;;7647764;22;84185;-61
2022/10/14 03:04:04;;;;;;;19.55;12.55;;;24.10;46.70;;;;;;7648565;22;84390;-61
2022/10/14 03:07:05;;;;;;;17.20;12.32;;;24.10;46.60;;;;;;7649432;22;85467;-62
2022/10/14 03:10:09;;;;;;;17.60;13.40;;;24.00;46.60;;;;;;7648213;22;84500;-61
2022/10/14 03:13:10;;;;;;;17.38;13.02;;;24.10;46.60;;;;;;7648001;22;85833;-62
2022/10/14 03:16:16;;;;;;;21.75;14.63;;;24.10;46.80;;;;;;7651137;22;85573;-62
2022/10/14 03:19:18;;;;;;;20.77;14.85;;;24.10;46.60;;;;;;7651679;22;85570;-62
2022/10/14 03:22:22;;;;;;;21.08;14.10;;;24.10;46.70;;;;;;7645851;22;85590;-63
2022/10/14 03:25:23;;;;;;;21.80;14.73;;;24.10;46.60;;;;;;7648119;22;85666;-63
2022/10/14 03:28:30;;;;;;;24.30;16.08;;;24.10;46.60;;;;;;7647646;22;86107;-63
2022/10/14 03:31:41;;;;;;;27.85;17.42;;;24.10;46.50;;;;;;7648757;22;85149;-63
2022/10/14 03:35:01;;;;;;;26.08;15.98;;;24.10;46.60;;;;;;7650699;22;86415;-63
2022/10/14 03:38:02;;;;;;;22.38;16.20;;;24.10;46.50;;;;;;7648223;22;85733;-64
2022/10/14 03:41:06;;;;;;;29.33;16.63;;;24.10;46.50;;;;;;7649363;22;85670;-65
2022/10/14 03:44:08;;;;;;;23.63;14.95;;;24.20;46.60;;;;;;7648962;22;90112;-62
2022/10/14 03:47:11;;;;;;;20.80;15.07;;;24.20;46.70;;;;;;7644450;22;84319;-57
2022/10/14 03:50:12;;;;;;;22.67;15.18;;;24.30;46.70;;;;;;7641743;22;84035;-56
2022/10/14 03:53:23;;;;;;;23.83;15.93;;;24.30;46.70;;;;;;7646924;22;85725;-56
2022/10/14 03:56:24;;;;;;;25.40;16.42;;;24.30;46.70;;;;;;7644614;22;84921;-56
2022/10/14 03:59:26;;;;;;;21.00;15.02;;;24.30;46.70;;;;;;7646798;22;84476;-55
2022/10/14 04:02:27;;;;;;;23.60;15.55;;;24.30;46.90;;;;;;7647343;22;85666;-54
2022/10/14 04:05:32;;;;;;;23.50;16.73;;;24.30;47.10;;;;;;7644105;22;85493;-56
2022/10/14 04:08:35;;;;;;;24.17;16.03;;;24.30;47.00;;;;;;7644810;22;85765;-53
2022/10/14 04:11:48;;;;;;;24.05;15.98;;;24.40;46.90;;;;;;7674417;22;83876;-56
2022/10/14 04:15:08;;;;;;;27.83;15.65;;;24.40;46.80;;;;;;7644136;22;85997;-55
2022/10/14 04:18:24;;;;;;;23.60;16.13;;;24.40;46.80;;;;;;7646508;22;84209;-57
2022/10/14 04:21:28;;;;;;;26.05;16.38;;;24.40;47.00;;;;;;7646099;22;86104;-64
2022/10/14 04:24:31;;;;;;;26.23;16.08;;;24.40;47.20;;;;;;7645747;22;84035;-56
2022/10/14 04:27:33;;;;;;;25.83;15.07;;;24.40;47.10;;;;;;7646829;22;85721;-53
2022/10/14 04:30:39;;;;;;;31.08;15.07;;;24.40;47.00;;;;;;7648421;22;85405;-54
2022/10/14 04:33:41;;;;;;;28.77;16.00;;;24.40;47.20;;;;;;7643450;22;85447;-54
2022/10/14 04:36:50;;;;;;;31.13;15.48;;;24.40;47.00;;;;;;7647219;22;85348;-53
2022/10/14 04:40:11;;;;;;;27.58;15.00;;;24.40;47.00;;;;;;7674610;22;83891;-54
2022/10/14 04:43:17;;;;;;;25.48;16.17;;;24.50;47.20;;;;;;7644673;22;85319;-56
2022/10/14 04:46:17;;;;;;;27.52;17.15;;;24.40;47.20;;;;;;7676120;22;84032;-58
2022/10/14 04:49:18;;;;;;;27.67;17.33;;;24.40;47.00;;;;;;7645119;22;84687;-58
2022/10/14 04:52:28;;;;;;;25.42;16.95;;;24.40;47.10;;;;;;7640166;22;85813;-54
2022/10/14 04:55:35;;;;;;;27.90;18.17;;;24.40;47.20;;;;;;7638796;22;84418;-54
2022/10/14 04:58:36;;;;;;;28.70;18.70;;;24.40;47.40;;;;;;7644164;22;85357;-60
2022/10/14 05:01:37;;;;;;;36.65;18.35;;;24.40;47.60;;;;;;7643082;22;86057;-55
2022/10/14 05:04:38;;;;;;;28.98;18.55;;;24.40;47.60;;;;;;7668083;22;84804;-55
2022/10/14 05:07:40;;;;;;;28.67;18.27;;;24.40;47.60;;;;;;7646621;22;85499;-60
2022/10/14 05:11:07;;;;;;;25.85;17.50;;;24.40;47.70;;;;;;7646019;22;85368;-54
2022/10/14 05:14:16;;;;;;;32.67;19.65;;;24.40;47.70;;;;;;7645843;22;90779;-56
2022/10/14 05:17:21;;;;;;;27.77;18.63;;;24.40;47.70;;;;;;7646843;22;84345;-59
2022/10/14 05:20:21;;;;;;;32.60;18.23;;;24.40;47.60;;;;;;7674545;22;83857;-63
2022/10/14 05:23:26;;;;;;;30.65;19.33;;;24.40;47.50;;;;;;7641490;22;83930;-62
2022/10/14 05:26:27;;;;;;;26.98;17.60;;;24.30;47.40;;;;;;7635517;22;85466;-64
2022/10/14 05:29:30;;;;;;;29.50;18.92;;;24.30;47.40;;;;;;7639334;22;84199;-50
2022/10/14 05:32:31;;;;;;;33.42;18.60;;;24.30;47.20;;;;;;7641202;22;85052;-53
2022/10/14 05:35:37;;;;;;;30.38;18.50;;;24.40;47.50;;;;;;7648575;22;86126;-61
2022/10/14 05:38:38;;;;;;;30.48;18.80;;;24.30;47.60;;;;;;7646871;22;85156;-61
2022/10/14 05:41:38;;;;;;;36.53;18.58;;;24.30;47.40;;;;;;7647793;22;85527;-61
2022/10/14 05:44:40;;;;;;;32.38;19.42;;;24.30;47.80;;;;;;7644159;22;85937;-60
2022/10/14 05:47:41;;;;;;;34.83;19.90;;;24.30;47.40;;;;;;7649036;22;85686;-61
2022/10/14 05:50:47;;;;;;;27.92;19.42;;;24.20;47.30;;;;;;7639384;22;85522;-60
2022/10/14 05:53:51;;;;;;;26.75;18.55;;;24.20;47.40;;;;;;7648775;22;85782;-60
2022/10/14 05:56:53;;;;;;;29.17;19.77;;;24.20;47.20;;;;;;7646158;22;85092;-51
2022/10/14 05:59:53;;;;;;;30.67;19.45;;;24.20;47.20;;;;;;7641448;22;85433;-54
2022/10/14 06:02:54;;;;;;;30.95;19.92;;;24.10;46.90;;;;;;7652824;22;84022;-55
2022/10/14 06:05:55;;;;;;;39.65;22.13;;;24.20;47.00;;;;;;7665746;22;84235;-51
2022/10/14 06:08:56;;;;;;;31.55;20.40;;;24.20;46.80;;;;;;7666361;22;83832;-54
2022/10/14 06:11:56;;;;;;;33.63;23.30;;;24.20;46.80;;;;;;7640382;22;85658;-56
2022/10/14 06:14:57;;;;;;;36.63;22.65;;;24.20;46.80;;;;;;7669403;22;82964;-61
2022/10/14 06:17:57;;;;;;;37.55;23.38;;;24.20;46.70;;;;;;7637589;22;85871;-61
2022/10/14 06:20:59;;;;;;;41.42;25.35;;;24.20;46.60;;;;;;7669284;22;82701;-60
2022/10/14 06:24:00;;;;;;;39.70;24.77;;;24.20;46.30;;;;;;7667910;22;83717;-61
2022/10/14 06:27:00;;;;;;;32.75;22.77;;;24.20;46.30;;;;;;7667716;22;83146;-61
2022/10/14 06:30:01;;;;;;;45.03;24.52;;;24.20;46.10;;;;;;7656438;22;84673;-60
2022/10/14 06:33:01;;;;;;;35.42;22.60;;;24.20;46.00;;;;;;7668413;22;82960;-60
2022/10/14 06:36:02;;;;;;;38.72;23.60;;;24.20;45.80;;;;;;7665838;22;84342;-61
2022/10/14 06:39:03;;;;;;;34.13;23.17;;;24.30;46.00;;;;;;7669801;22;83322;-60
2022/10/14 06:42:04;;;;;;;36.53;22.40;;;24.30;46.50;;;;;;7669240;22;82953;-61
2022/10/14 06:45:04;;;;;;;35.75;23.27;;;24.30;46.00;;;;;;7668937;22;83410;-61
2022/10/14 06:48:05;;;;;;;35.22;23.05;;;24.30;45.90;;;;;;7669438;22;84648;-60
2022/10/14 06:51:06;;;;;;;36.60;22.10;;;24.40;46.00;;;;;;7668815;22;83030;-60
2022/10/14 06:54:06;;;;;;;39.33;23.45;;;24.40;46.00;;;;;;7672325;22;83217;-60
2022/10/14 06:57:07;;;;;;;33.53;22.23;;;24.50;46.10;;;;;;7666015;22;83434;-61
2022/10/14 07:00:08;;;;;;;34.45;21.50;;;24.50;46.10;;;;;;7648072;22;83982;-61
2022/10/14 07:03:08;;;;;;;31.30;22.33;;;24.50;46.20;;;;;;7675837;22;82944;-60
2022/10/14 07:06:09;;;;;;;30.88;20.95;;;24.50;46.20;;;;;;7671822;22;83649;-59
2022/10/14 07:09:09;;;;;;;39.45;22.65;;;24.60;46.20;;;;;;7671346;22;83973;-59
2022/10/14 07:12:10;;;;;;;36.60;21.67;;;24.60;46.30;;;;;;7664883;22;83989;-61
2022/10/14 07:15:10;;;;;;;73.55;42.30;;;24.60;46.30;;;;;;7671629;22;84994;-61
2022/10/14 07:18:11;;;;;;;106.60;57.00;;;24.70;46.40;;;;;;7677645;22;82802;-61
2022/10/14 07:21:12;;;;;;;171.95;93.07;;;24.70;46.40;;;;;;7677015;22;82702;-62
2022/10/14 07:24:12;;;;;;;160.95;87.07;;;24.70;46.20;;;;;;7676883;22;83915;-59
2022/10/14 07:27:14;;;;;;;139.63;75.22;;;24.80;46.30;;;;;;7672323;22;83298;-59
2022/10/14 07:30:15;;;;;;;132.27;68.30;;;24.80;46.30;;;;;;7674262;22;84064;-59
2022/10/14 07:33:15;;;;;;;117.15;62.53;;;24.90;46.40;;;;;;7667721;22;84337;-60
2022/10/14 07:36:16;;;;;;;98.18;56.88;;;24.90;46.40;;;;;;7673977;22;83684;-60
2022/10/14 07:39:16;;;;;;;98.15;55.47;;;24.90;46.30;;;;;;7675681;22;82866;-60
2022/10/14 07:42:17;;;;;;;94.55;52.78;;;25.00;46.30;;;;;;7669020;22;83426;-60
2022/10/14 07:45:19;;;;;;;97.00;50.92;;;25.00;46.30;;;;;;7669362;22;89157;-61
2022/10/14 07:48:20;;;;;;;93.15;48.95;;;25.10;46.40;;;;;;7669242;22;84457;-59
2022/10/14 07:51:20;;;;;;;82.50;46.35;;;25.10;46.40;;;;;;7670542;22;82962;-58
2022/10/14 07:54:21;;;;;;;83.88;45.13;;;25.10;46.50;;;;;;7669274;22;84299;-59
2022/10/14 07:57:22;;;;;;;81.32;43.70;;;25.10;46.40;;;;;;7665499;22;82711;-62
2022/10/14 08:00:22;;;;;;;79.97;45.05;;;25.20;46.50;;;;;;7673043;22;83235;-61
2022/10/14 08:03:23;;;;;;;90.97;47.72;;;25.20;46.70;;;;;;7645901;22;83904;-53
2022/10/14 08:06:23;;;;;;;92.70;49.10;;;25.20;46.80;;;;;;7668357;22;82842;-52
2022/10/14 08:09:24;;;;;;;94.60;49.83;;;25.20;46.90;;;;;;7668298;22;84688;-52
2022/10/14 08:12:25;;;;;;;89.70;48.45;;;25.30;47.20;;;;;;7663439;22;83829;-55
2022/10/14 08:15:28;;;;;;;87.75;48.67;;;25.30;47.10;;;;;;7670682;22;84130;-56
2022/10/14 08:18:29;;;;;;;84.18;46.45;;;25.30;47.00;;;;;;7666720;22;83267;-55
2022/10/14 08:21:29;;;;;;;80.60;43.22;;;25.30;47.10;;;;;;7668469;22;83106;-54
2022/10/14 08:24:30;;;;;;;84.38;42.13;;;25.30;47.00;;;;;;7668131;22;83437;-53
2022/10/14 08:27:30;;;;;;;71.07;40.00;;;25.30;47.10;;;;;;7666160;22;84758;-54
2022/10/14 08:30:31;;;;;;;72.57;40.65;;;25.30;47.20;;;;;;7669655;22;84800;-54
2022/10/14 08:33:31;;;;;;;69.57;38.28;;;25.20;47.20;;;;;;7660658;22;82948;-55
2022/10/14 08:36:32;;;;;;;64.72;34.53;;;25.30;47.20;;;;;;7670636;22;83637;-54
2022/10/14 08:39:32;;;;;;;55.33;34.95;;;25.30;47.20;;;;;;7664635;22;83126;-52
2022/10/14 08:42:33;;;;;;;58.97;34.70;;;25.40;47.20;;;;;;7668741;22;83722;-51
2022/10/14 08:45:33;;;;;;;55.55;34.55;;;25.30;47.20;;;;;;7666995;22;84195;-50
2022/10/14 08:48:34;;;;;;;62.55;33.28;;;25.40;47.30;;;;;;7675011;22;82989;-52
2022/10/14 08:51:35;;;;;;;50.17;31.50;;;25.40;47.20;;;;;;7676323;22;83067;-50
2022/10/14 08:54:35;;;;;;;71.13;30.90;;;25.40;47.30;;;;;;7674534;22;84015;-54
2022/10/14 08:57:36;;;;;;;52.00;30.25;;;25.40;47.40;;;;;;7671104;22;82913;-49
2022/10/14 09:00:36;;;;;;;47.65;28.92;;;25.40;47.40;;;;;;7677188;22;84107;-50
2022/10/14 09:03:37;;;;;;;48.50;28.88;;;25.40;47.80;;;;;;7670848;22;84043;-50
2022/10/14 09:06:38;;;;;;;49.50;29.50;;;25.40;47.80;;;;;;7669974;22;82620;-52
2022/10/14 09:09:38;;;;;;;44.00;27.83;;;25.40;47.90;;;;;;7672727;22;83217;-49
2022/10/14 09:12:39;;;;;;;43.47;26.35;;;25.30;47.80;;;;;;7673006;22;83399;-52
2022/10/14 09:15:41;;;;;;;48.58;26.15;;;25.30;48.00;;;;;;7676437;22;84553;-53
2022/10/14 09:18:41;;;;;;;42.65;26.52;;;25.30;48.20;;;;;;7651335;22;82956;-49
2022/10/14 09:21:42;;;;;;;39.75;25.45;;;25.20;48.40;;;;;;7674868;22;83238;-52
2022/10/14 09:24:47;;;;;;;38.50;24.35;;;25.20;48.40;;;;;;7674816;22;82859;-48
2022/10/14 09:27:47;;;;;;;38.23;25.47;;;25.20;48.60;;;;;;7674031;22;83280;-48
2022/10/14 09:30:48;;;;;;;41.28;24.73;;;25.20;48.50;;;;;;7674899;22;84045;-46
2022/10/14 09:33:49;;;;;;;40.50;24.75;;;25.20;48.60;;;;;;7681879;22;82912;-48
2022/10/14 09:36:50;;;;;;;41.75;24.77;;;25.20;48.70;;;;;;7680374;22;82876;-49
2022/10/14 09:39:50;;;;;;;42.30;23.27;;;25.10;49.40;;;;;;7677980;22;83469;-48
2022/10/14 09:42:51;;;;;;;39.50;23.80;;;25.10;48.70;;;;;;7682253;22;82666;-51
2022/10/14 09:45:51;;;;;;;40.72;25.13;;;25.10;48.80;;;;;;7680360;22;84098;-50
2022/10/14 09:48:52;;;;;;;39.33;23.50;;;25.10;48.80;;;;;;7674485;22;83066;-49
2022/10/14 09:51:55;;;;;;;39.40;23.50;;;25.10;49.30;;;;;;7672324;22;82992;-50
2022/10/14 09:54:56;;;;;;;36.85;22.65;;;25.20;48.80;;;;;;7681243;22;82745;-58
2022/10/14 09:57:56;;;;;;;33.20;21.02;;;25.30;48.80;;;;;;7676666;22;83105;-59
2022/10/14 10:00:57;;;;;;;37.58;22.65;;;25.30;48.60;;;;;;7678222;22;84142;-58
2022/10/14 10:03:57;;;;;;;30.50;21.83;;;25.30;48.60;;;;;;7675873;22;83365;-58
2022/10/14 10:06:58;;;;;;;32.67;20.90;;;25.40;48.70;;;;;;7673481;22;83418;-59
2022/10/14 10:09:58;;;;;;;34.28;20.90;;;25.40;48.50;;;;;;7680989;22;82938;-59
2022/10/14 10:12:59;;;;;;;36.40;21.15;;;25.50;48.60;;;;;;7678640;22;82850;-58
2022/10/14 10:16:00;;;;;;;35.63;21.77;;;25.50;48.60;;;;;;7679848;22;82865;-58
2022/10/14 10:19:00;;;;;;;32.55;19.92;;;25.50;48.80;;;;;;7678929;22;83072;-58
2022/10/14 10:22:01;;;;;;;30.50;21.50;;;25.40;48.90;;;;;;7677507;22;82974;-58
2022/10/14 10:25:02;;;;;;;30.60;20.52;;;25.40;49.00;;;;;;7678301;22;82924;-58
2022/10/14 10:28:02;;;;;;;34.58;20.27;;;25.40;48.80;;;;;;7680038;22;82895;-60
2022/10/14 10:31:04;;;;;;;29.55;19.50;;;25.40;49.00;;;;;;7677513;22;84041;-60
2022/10/14 10:34:05;;;;;;;28.77;19.27;;;25.30;48.90;;;;;;7680601;22;83357;-59
2022/10/14 10:37:07;;;;;;;30.75;19.52;;;25.30;49.00;;;;;;7677369;22;82737;-60
2022/10/14 10:40:07;;;;;;;31.23;19.83;;;25.30;49.00;;;;;;7678855;22;84297;-59
2022/10/14 10:43:08;;;;;;;30.15;18.63;;;25.30;49.20;;;;;;7679885;22;83111;-59
2022/10/14 10:46:09;;;;;;;29.73;18.35;;;25.30;49.50;;;;;;7677667;22;82574;-59
2022/10/14 10:49:09;;;;;;;29.45;18.70;;;25.30;49.30;;;;;;7671194;22;82853;-59
2022/10/14 10:52:10;;;;;;;27.92;18.27;;;25.20;49.50;;;;;;7666811;22;83168;-60
2022/10/14 10:55:10;;;;;;;29.65;18.45;;;25.30;49.80;;;;;;7671155;22;84582;-59
2022/10/14 10:58:11;;;;;;;28.05;18.50;;;25.30;50.00;;;;;;7671671;22;82935;-59
2022/10/14 11:01:11;;;;;;;28.83;17.52;;;25.20;49.80;;;;;;7660183;22;82900;-59
2022/10/14 11:04:12;;;;;;;33.72;17.33;;;25.20;50.00;;;;;;7666894;22;83087;-59
2022/10/14 11:13:51;;;;;;;25.30;15.88;;;25.10;49.70;;;;;;7676284;22;84536;-59
2022/10/14 11:16:52;;;;;;;33.03;16.63;;;25.10;50.30;;;;;;7676390;22;83986;-58
2022/10/14 11:19:53;;;;;;;25.65;16.70;;;25.10;50.30;;;;;;7676401;22;83118;-59
2022/10/14 11:22:53;;;;;;;26.15;16.27;;;25.10;50.50;;;;;;7665554;22;84148;-59
2022/10/14 11:25:54;;;;;;;28.15;17.35;;;25.10;50.50;;;;;;7674313;22;83418;-59
2022/10/14 11:28:54;;;;;;;26.35;17.23;;;25.10;50.20;;;;;;7672395;22;84097;-60
2022/10/14 11:31:55;;;;;;;30.63;17.45;;;25.20;50.40;;;;;;7676459;22;83758;-59
2022/10/14 11:34:55;;;;;;;29.67;16.92;;;25.20;50.50;;;;;;7675248;22;84093;-60
2022/10/14 11:37:56;;;;;;;28.50;16.10;;;25.20;50.20;;;;;;7675566;22;83483;-58
2022/10/14 11:40:57;;;;;;;27.98;16.48;;;25.20;50.40;;;;;;7675862;22;83701;-59
2022/10/14 11:43:58;;;;;;;22.95;15.68;;;25.20;50.40;;;;;;7677552;22;83091;-62
2022/10/14 11:47:00;;;;;;;20.52;14.75;;;25.30;50.30;;;;;;7675769;22;83081;-62
2022/10/14 11:50:01;;;;;;;24.35;15.70;;;25.30;50.20;;;;;;7675382;22;83285;-62
2022/10/14 11:53:01;;;;;;;25.90;15.18;;;25.30;50.90;;;;;;7679139;22;82910;-62
2022/10/14 11:56:02;;;;;;;27.30;16.13;;;25.30;50.30;;;;;;7672077;22;83135;-61
2022/10/14 11:59:02;;;;;;;24.00;15.45;;;25.30;50.30;;;;;;7676419;22;84277;-62
2022/10/14 12:02:03;;;;;;;22.80;14.63;;;25.20;50.40;;;;;;7676650;22;83119;-60
2022/10/14 12:05:03;;;;;;;23.75;15.15;;;25.10;50.40;;;;;;7677224;22;83273;-59
2022/10/14 12:08:04;;;;;;;23.95;15.20;;;25.10;50.50;;;;;;7675642;22;83375;-60
2022/10/14 12:11:04;;;;;;;22.42;13.90;;;25.10;50.50;;;;;;7678439;22;83106;-59
2022/10/14 12:14:05;;;;;;;23.48;14.85;;;25.10;50.50;;;;;;7671285;22;83149;-60
2022/10/14 12:17:06;;;;;;;26.38;14.05;;;25.10;50.40;;;;;;7669213;22;83235;-60
2022/10/14 12:20:06;;;;;;;19.60;13.80;;;25.10;50.60;;;;;;7671619;22;83180;-63
2022/10/14 12:23:07;;;;;;;24.90;14.05;;;25.00;50.40;;;;;;7643942;22;84456;-63
2022/10/14 12:26:07;;;;;;;21.75;14.18;;;25.00;50.60;;;;;;7667022;22;83666;-65
2022/10/14 12:29:08;;;;;;;22.88;14.68;;;25.00;50.50;;;;;;7668569;22;87460;-62
2022/10/14 12:32:09;;;;;;;25.35;14.00;;;25.00;50.50;;;;;;7670720;22;83563;-63
2022/10/14 12:35:09;;;;;;;20.80;13.65;;;25.00;50.70;;;;;;7674792;22;84428;-61
2022/10/14 12:38:10;;;;;;;18.88;12.45;;;25.00;50.70;;;;;;7676759;22;84598;-54
2022/10/14 12:41:11;;;;;;;21.88;13.82;;;24.90;50.90;;;;;;7677502;22;82886;-57
2022/10/14 12:44:13;;;;;;;20.05;13.93;;;24.90;51.10;;;;;;7676822;22;83109;-56
2022/10/14 12:47:14;;;;;;;20.05;13.50;;;24.90;51.10;;;;;;7674591;22;84269;-58
2022/10/14 12:50:15;;;;;;;20.60;13.70;;;24.80;50.80;;;;;;7673618;22;84552;-57
2022/10/14 12:53:15;;;;;;;19.60;12.07;;;24.80;50.90;;;;;;7678189;22;83581;-57
2022/10/14 12:56:16;;;;;;;18.95;12.95;;;24.70;50.90;;;;;;7675545;22;82972;-53
2022/10/14 12:59:16;;;;;;;17.45;12.90;;;24.70;51.00;;;;;;7676048;22;82886;-66
2022/10/14 13:02:17;;;;;;;22.98;13.25;;;24.70;51.30;;;;;;7676634;22;84364;-56
2022/10/14 13:05:17;;;;;;;38.65;20.40;;;24.70;50.90;;;;;;7674567;22;82929;-58
2022/10/14 13:08:18;;;;;;;358.45;162.27;;;24.70;50.80;;;;;;7673390;22;88539;-58
2022/10/14 13:11:18;;;;;;;728.40;373.40;;;24.70;51.10;;;;;;7673688;22;85121;-55
2022/10/14 13:14:22;;;;;;;959.05;482.08;;;24.70;51.10;;;;;;7667366;22;85591;-56
2022/10/14 13:17:23;;;;;;;840.58;430.25;;;24.80;51.40;;;;;;7666832;22;85985;-61
2022/10/14 13:20:23;;;;;;;895.58;456.17;;;24.70;51.40;;;;;;7673781;22;85851;-60
2022/10/14 13:23:25;;;;;;;702.17;348.45;;;24.70;51.50;;;;;;7673322;22;85257;-59
2022/10/14 13:26:29;;;;;;;649.03;318.40;;;24.80;51.30;;;;;;7671164;22;85662;-58
2022/10/14 13:29:30;;;;;;;587.35;270.25;;;24.80;51.40;;;;;;7667687;22;86927;-60
2022/10/14 13:32:30;;;;;;;533.22;251.70;;;24.80;51.40;;;;;;7668597;22;85718;-62
2022/10/14 13:35:31;;;;;;;501.95;225.88;;;24.80;51.40;;;;;;7669247;22;85829;-58
2022/10/14 13:38:31;;;;;;;453.75;210.00;;;24.80;51.50;;;;;;7669749;22;86308;-54
2022/10/14 13:41:33;;;;;;;443.65;201.00;;;24.80;51.40;;;;;;7665385;22;85873;-55
2022/10/14 13:44:34;;;;;;;409.50;183.82;;;24.80;51.30;;;;;;7664539;22;86092;-57
2022/10/14 13:47:35;;;;;;;405.95;176.80;;;24.90;51.50;;;;;;7672625;22;86337;-56
2022/10/14 13:50:35;;;;;;;367.27;168.38;;;24.90;51.30;;;;;;7671581;22;85585;-56
2022/10/14 13:53:36;;;;;;;366.45;159.93;;;25.00;51.60;;;;;;7670459;22;85763;-57
2022/10/14 13:56:37;;;;;;;358.20;152.55;;;25.10;51.60;;;;;;7672517;22;86507;-56
2022/10/14 13:59:38;;;;;;;333.98;149.52;;;25.20;51.50;;;;;;7666996;22;85676;-56
2022/10/14 14:02:38;;;;;;;313.65;142.38;;;25.30;51.60;;;;;;7672272;22;86726;-55
2022/10/14 14:05:39;;;;;;;309.30;136.27;;;25.30;51.50;;;;;;7652726;22;86168;-58
2022/10/14 14:08:39;;;;;;;314.73;137.75;;;25.30;51.50;;;;;;7662811;22;85310;-57
2022/10/14 14:11:40;;;;;;;292.52;128.18;;;25.30;51.60;;;;;;7664358;22;86280;-59
2022/10/14 14:14:40;;;;;;;275.90;123.88;;;25.40;51.80;;;;;;7663891;22;85459;-58
2022/10/14 14:17:41;;;;;;;249.27;114.43;;;25.30;51.80;;;;;;7666918;22;85722;-60
2022/10/14 14:20:41;;;;;;;242.40;107.32;;;25.30;52.00;;;;;;7658913;22;87100;-60
2022/10/14 14:23:42;;;;;;;209.32;96.90;;;25.20;52.20;;;;;;7661543;22;86795;-59
2022/10/14 14:26:42;;;;;;;199.45;94.45;;;25.20;52.70;;;;;;7671148;22;85109;-60
2022/10/14 14:29:45;;;;;;;197.57;92.85;;;25.20;52.80;;;;;;7671541;22;84018;-59
2022/10/14 14:32:46;;;;;;;177.57;86.90;;;25.10;53.10;;;;;;7670404;22;83152;-56
2022/10/14 14:35:46;;;;;;;180.48;81.13;;;25.10;53.10;;;;;;7671899;22;83328;-60
2022/10/14 14:38:47;;;;;;;168.55;80.22;;;25.00;53.10;;;;;;7671713;22;83738;-59
2022/10/14 14:41:47;;;;;;;158.70;77.90;;;25.10;53.20;;;;;;7668927;22;82985;-60
2022/10/14 14:44:48;;;;;;;154.18;75.40;;;25.10;53.30;;;;;;7673115;22;85348;-60
2022/10/14 14:47:49;;;;;;;155.73;72.53;;;25.00;53.20;;;;;;7672568;22;83048;-59
2022/10/14 14:50:50;;;;;;;152.98;70.05;;;25.00;53.20;;;;;;7672281;22;83114;-60
2022/10/14 14:53:50;;;;;;;144.90;69.35;;;25.00;53.00;;;;;;7669814;22;84084;-59
2022/10/14 14:56:51;;;;;;;139.60;64.95;;;25.00;53.00;;;;;;7671437;22;83276;-59
2022/10/14 14:59:52;;;;;;;129.07;63.03;;;25.00;53.00;;;;;;7671978;22;83042;-59
2022/10/14 15:02:52;;;;;;;124.95;60.50;;;25.00;53.00;;;;;;7677947;22;83228;-59
2022/10/14 15:05:53;;;;;;;122.50;59.08;;;24.90;53.10;;;;;;7675609;22;83733;-59
2022/10/14 15:08:53;;;;;;;121.75;57.13;;;24.90;53.10;;;;;;7671876;22;84638;-60
2022/10/14 15:11:54;;;;;;;103.20;52.33;;;24.90;53.10;;;;;;7665456;22;82725;-64
2022/10/14 15:14:56;;;;;;;102.70;51.53;;;24.90;53.10;;;;;;7669608;22;82919;-65
2022/10/14 15:17:57;;;;;;;99.18;49.65;;;24.90;53.60;;;;;;7667066;22;84338;-66
2022/10/14 15:20:57;;;;;;;93.70;47.15;;;24.90;53.30;;;;;;7673707;22;83362;-65
2022/10/14 15:23:59;;;;;;;90.15;44.25;;;24.90;53.70;;;;;;7667299;22;84881;-60